Time;durP1;ratioP1;P1;durP2;ratioP2;P2;SDS_P1;SDS_P2;PMS_P1;PMS_P2;Temp;Humidity;BMP_temperature;BMP_pressure;BME280_temperature;BME280_humidity;BME280_pressure;Samples;Min_cycle;Max_cycle;Signal;HPM_P1;HPM_P2
2022/07/01 00:01:49;;;;;;;12.50;10.60;;;;;;;23.22;69.59;97523.19;105166;1284;22553;-77
2022/07/01 00:04:17;;;;;;;22.10;10.30;;;;;;;23.20;69.49;97524.76;105524;1284;22663;-78
2022/07/01 00:06:45;;;;;;;14.60;10.20;;;;;;;23.17;69.54;97521.29;105464;1284;22563;-78
2022/07/01 00:09:13;;;;;;;14.70;10.30;;;;;;;23.21;69.41;97523.73;105034;1285;22573;-77
2022/07/01 00:11:41;;;;;;;14.10;9.90;;;;;;;23.18;69.37;97526.08;105480;1284;25409;-76
2022/07/01 00:14:10;;;;;;;15.70;10.90;;;;;;;23.16;69.27;97522.39;105103;1284;24294;-77
2022/07/01 00:16:38;;;;;;;13.60;9.60;;;;;;;23.11;69.07;97524.66;105345;1284;25298;-76
2022/07/01 00:19:06;;;;;;;13.00;9.50;;;;;;;23.06;69.16;97527.70;105345;1284;22552;-77
2022/07/01 00:21:34;;;;;;;14.70;9.20;;;;;;;23.02;69.07;97525.12;105388;1284;22561;-77
2022/07/01 00:24:03;;;;;;;14.50;8.90;;;;;;;23.00;69.45;97523.54;105345;1285;23514;-77
2022/07/01 00:26:30;;;;;;;11.30;8.50;;;;;;;23.06;69.44;97520.96;105356;1284;25674;-77
2022/07/01 00:28:59;;;;;;;12.90;9.40;;;;;;;23.06;69.17;97517.04;105364;1284;22566;-77
2022/07/01 00:31:27;;;;;;;15.30;9.60;;;;;;;22.97;68.99;97517.19;105376;1284;22551;-79
2022/07/01 00:33:55;;;;;;;13.40;9.80;;;;;;;22.89;69.32;97515.02;105367;1284;25421;-78
2022/07/01 00:36:23;;;;;;;13.80;10.80;;;;;;;22.83;69.20;97514.63;105348;1284;22520;-77
2022/07/01 00:38:58;;;;;;;;;;;;;;;22.79;69.37;97513.73;105393;1285;25406;-78
2022/07/01 00:41:26;;;;;;;9.60;7.90;;;;;;;22.86;69.67;97512.73;105321;1285;25497;-78
2022/07/01 00:43:55;;;;;;;12.20;8.00;;;;;;;22.91;69.51;97510.69;105352;1284;23584;-78
2022/07/01 00:46:25;;;;;;;12.60;8.90;;;;;;;22.98;69.42;97508.95;105369;1284;22583;-78
2022/07/01 00:48:58;;;;;;;14.30;9.40;;;;;;;22.95;69.06;97499.19;105399;1284;22559;-78
2022/07/01 00:51:28;;;;;;;10.60;8.80;;;;;;;22.95;69.08;97497.95;105347;1284;25223;-78
2022/07/01 00:53:58;;;;;;;11.30;9.40;;;;;;;22.97;69.12;97493.40;105388;1284;22582;-77
2022/07/01 00:56:26;;;;;;;13.10;9.60;;;;;;;22.98;68.97;97494.73;105412;1284;25425;-78
2022/07/01 00:58:55;;;;;;;12.30;9.40;;;;;;;22.97;68.82;97491.67;105383;1284;22551;-78
2022/07/01 01:01:23;;;;;;;15.30;9.20;;;;;;;23.00;68.72;97490.57;105371;1285;22557;-77
2022/07/01 01:03:52;;;;;;;11.80;9.10;;;;;;;23.00;68.58;97489.01;105345;1284;22552;-79
2022/07/01 01:06:20;;;;;;;13.00;8.50;;;;;;;22.98;68.65;97490.34;105361;1284;22562;-80
2022/07/01 01:08:51;;;;;;;15.90;10.50;;;;;;;22.96;68.56;97490.33;105369;1283;22677;-80
2022/07/01 01:11:19;;;;;;;12.60;8.90;;;;;;;22.84;68.28;97490.98;105382;1284;24289;-78
2022/07/01 01:13:47;;;;;;;13.40;9.00;;;;;;;22.67;68.12;97490.72;105342;1284;24463;-79
2022/07/01 01:16:17;;;;;;;12.10;9.30;;;;;;;22.49;68.25;97491.06;105516;1284;25358;-79
2022/07/01 01:18:46;;;;;;;13.30;9.90;;;;;;;22.37;68.70;97494.70;105369;1284;22553;-80
2022/07/01 01:21:14;;;;;;;12.90;9.00;;;;;;;22.36;68.49;97497.29;105309;1284;22594;-78
2022/07/01 01:23:42;;;;;;;14.00;8.50;;;;;;;22.33;68.43;97497.27;105413;1284;24390;-78
2022/07/01 01:26:21;;;;;;;15.90;9.30;;;;;;;22.31;68.64;97495.08;105364;1284;24297;-79
2022/07/01 01:28:50;;;;;;;10.10;9.10;;;;;;;22.32;68.60;97500.41;105363;1284;22579;-78
2022/07/01 01:31:30;;;;;;;10.20;9.00;;;;;;;22.30;69.01;97505.10;105311;1284;22598;-78
2022/07/01 01:33:58;;;;;;;13.60;9.30;;;;;;;22.31;68.24;97499.23;105076;1284;23811;-82
2022/07/01 01:36:26;;;;;;;9.30;7.80;;;;;;;22.23;68.31;97499.58;105120;1284;24079;-81
2022/07/01 01:39:00;;;;;;;12.70;8.40;;;;;;;22.22;68.70;97497.61;105377;1284;25365;-82
2022/07/01 01:41:28;;;;;;;12.20;8.90;;;;;;;22.17;69.23;97496.49;105387;1284;24498;-82
2022/07/01 01:43:56;;;;;;;11.70;7.90;;;;;;;22.17;69.16;97495.40;105362;1284;22562;-80
2022/07/01 01:46:24;;;;;;;12.00;9.30;;;;;;;22.22;69.23;97499.19;105107;1284;25374;-81
2022/07/01 01:48:52;;;;;;;13.10;10.10;;;;;;;22.13;68.69;97502.19;105354;1284;22729;-81
2022/07/01 01:51:20;;;;;;;12.90;10.40;;;;;;;21.94;68.98;97505.91;105337;1284;22800;-81
2022/07/01 01:53:48;;;;;;;13.40;10.10;;;;;;;21.82;69.30;97509.60;105526;1284;269224;-88
2022/07/01 01:56:16;;;;;;;11.80;9.30;;;;;;;21.72;69.43;97510.02;105398;1285;22588;-85
2022/07/01 01:58:44;;;;;;;14.20;8.50;;;;;;;21.73;69.88;97505.55;105409;1285;25642;-81
2022/07/01 02:01:13;;;;;;;12.90;9.40;;;;;;;21.81;69.89;97506.45;105396;1284;24317;-83
2022/07/01 02:03:42;;;;;;;11.20;7.60;;;;;;;21.87;69.87;97503.52;105360;1284;22649;-83
2022/07/01 02:06:11;;;;;;;13.70;9.30;;;;;;;21.89;69.60;97504.00;105439;1284;22541;-84
2022/07/01 02:08:39;;;;;;;9.50;8.50;;;;;;;21.77;68.95;97503.23;105392;1284;22560;-83
2022/07/01 02:11:08;;;;;;;9.90;8.20;;;;;;;21.64;69.74;97502.83;105360;1284;26963;-85
2022/07/01 02:13:37;;;;;;;13.20;9.60;;;;;;;21.52;69.54;97496.63;105362;1284;22696;-83
2022/07/01 02:16:05;;;;;;;12.20;9.10;;;;;;;21.38;69.68;97496.69;105329;1284;22550;-84
2022/07/01 02:18:33;;;;;;;13.00;9.60;;;;;;;21.34;70.19;97500.07;105365;1284;25303;-83
2022/07/01 02:21:02;;;;;;;11.60;10.00;;;;;;;21.33;70.57;97503.90;105340;1284;22587;-84
2022/07/01 02:23:37;;;;;;;13.20;8.90;;;;;;;21.30;70.08;97499.58;105404;1284;22634;-84
2022/07/01 02:26:05;;;;;;;10.70;8.40;;;;;;;21.30;70.84;97502.30;105314;1286;22665;-83
2022/07/01 02:28:33;;;;;;;13.80;9.90;;;;;;;21.32;70.68;97501.63;105341;1284;22551;-84
2022/07/01 02:31:02;;;;;;;16.40;9.30;;;;;;;21.32;70.44;97498.49;105371;1284;25510;-83
2022/07/01 02:33:31;;;;;;;13.60;7.70;;;;;;;21.35;70.56;97501.73;105419;1284;22593;-83
2022/07/01 02:35:59;;;;;;;15.00;9.90;;;;;;;21.40;70.51;97506.33;105389;1284;24347;-83
2022/07/01 02:38:27;;;;;;;14.00;10.00;;;;;;;21.39;70.27;97513.36;105322;1286;22637;-84
2022/07/01 02:40:55;;;;;;;13.10;9.60;;;;;;;21.38;70.46;97516.27;105362;1284;22552;-84
2022/07/01 02:43:22;;;;;;;11.10;10.00;;;;;;;21.37;70.82;97518.44;105373;1284;25454;-83
2022/07/01 02:45:50;;;;;;;12.40;9.10;;;;;;;21.39;70.61;97518.94;105339;1284;22629;-82
2022/07/01 02:48:18;;;;;;;10.90;8.80;;;;;;;21.38;70.54;97522.21;105364;1284;22576;-82
2022/07/01 02:50:46;;;;;;;15.10;9.60;;;;;;;21.40;70.89;97524.27;105355;1284;22634;-81
2022/07/01 02:53:14;;;;;;;13.20;8.40;;;;;;;21.48;71.06;97521.90;105351;1284;22607;-83
2022/07/01 02:55:42;;;;;;;11.20;8.60;;;;;;;21.55;71.58;97524.61;105349;1284;25434;-81
2022/07/01 02:58:10;;;;;;;10.30;8.70;;;;;;;21.68;70.93;97527.30;105333;1284;22766;-81
2022/07/01 03:00:38;;;;;;;11.70;8.60;;;;;;;21.70;70.92;97526.13;105315;1284;22776;-82
2022/07/01 03:03:06;;;;;;;9.90;8.40;;;;;;;21.64;71.12;97525.55;105322;1285;22560;-82
2022/07/01 03:05:34;;;;;;;12.00;9.50;;;;;;;21.64;70.85;97524.69;105338;1284;22721;-82
2022/07/01 03:08:02;;;;;;;10.40;9.10;;;;;;;21.61;70.83;97525.60;105342;1284;24444;-82
2022/07/01 03:10:30;;;;;;;12.90;9.80;;;;;;;21.63;70.75;97533.21;105365;1284;22596;-81
2022/07/01 03:12:59;;;;;;;12.40;10.60;;;;;;;21.61;70.85;97533.58;105330;1284;23347;-81
2022/07/01 03:15:28;;;;;;;13.00;9.00;;;;;;;21.63;71.29;97534.08;105351;1285;24373;-82
2022/07/01 03:17:55;;;;;;;10.00;7.70;;;;;;;21.75;71.52;97534.87;105324;1286;22570;-82
2022/07/01 03:20:24;;;;;;;11.30;9.70;;;;;;;21.90;71.41;97533.95;105339;1284;25700;-82
2022/07/01 03:22:51;;;;;;;10.40;8.20;;;;;;;22.06;71.23;97528.70;105380;1284;22678;-82
2022/07/01 03:25:19;;;;;;;12.90;8.80;;;;;;;22.19;70.76;97525.59;105354;1284;23395;-82
2022/07/01 03:27:47;;;;;;;11.50;9.50;;;;;;;22.17;70.60;97524.80;105337;1285;22561;-82
2022/07/01 03:30:17;;;;;;;12.80;9.10;;;;;;;22.15;70.35;97528.60;105373;1284;23019;-82
2022/07/01 03:32:46;;;;;;;10.10;8.40;;;;;;;22.13;70.39;97529.52;105342;1284;22566;-82
2022/07/01 03:38:01;;;;;;;10.40;7.60;;;;;;;22.31;70.48;97528.56;105397;1284;22644;-82
2022/07/01 03:40:30;;;;;;;12.20;7.70;;;;;;;22.46;70.23;97526.44;105350;1284;22583;-82
2022/07/01 03:42:58;;;;;;;16.50;8.40;;;;;;;22.64;69.68;97523.98;105345;1284;23133;-82
2022/07/01 03:45:26;;;;;;;11.70;10.40;;;;;;;22.64;69.46;97531.98;105387;1284;23061;-82
2022/07/01 03:47:54;;;;;;;11.90;10.50;;;;;;;22.54;69.48;97528.17;105357;1284;22570;-82
2022/07/01 03:50:24;;;;;;;12.50;10.40;;;;;;;22.49;69.46;97532.88;105342;1284;23001;-82
2022/07/01 03:55:38;;;;;;;11.50;9.20;;;;;;;22.42;69.61;97537.40;105327;1284;22595;-82
2022/07/01 03:58:07;;;;;;;11.90;8.70;;;;;;;22.49;69.34;97537.18;105372;1284;22638;-82
2022/07/01 04:00:36;;;;;;;13.80;10.10;;;;;;;22.51;69.26;97535.78;105414;1284;22608;-82
2022/07/01 04:03:05;;;;;;;13.30;9.70;;;;;;;22.51;69.03;97538.99;105382;1284;24375;-82
2022/07/01 04:05:34;;;;;;;10.90;9.60;;;;;;;22.53;69.02;97538.14;105448;1284;22567;-83
2022/07/01 04:08:08;;;;;;;8.10;7.30;;;;;;;22.57;69.08;97538.23;105378;1285;25497;-82
2022/07/01 04:10:37;;;;;;;8.00;7.20;;;;;;;22.69;69.01;97541.41;105412;1284;22750;-86
2022/07/01 04:13:05;;;;;;;13.30;8.30;;;;;;;22.77;69.04;97541.98;105358;1284;22582;-85
2022/07/01 04:15:53;;;;;;;11.30;7.80;;;;;;;22.82;68.69;97542.71;105338;1284;22610;-84
2022/07/01 04:18:21;;;;;;;15.10;9.20;;;;;;;22.91;68.77;97541.70;105327;1284;23663;-83
2022/07/01 04:23:36;;;;;;;9.70;8.20;;;;;;;23.06;68.64;97545.77;105328;1284;25417;-84
2022/07/01 04:26:04;;;;;;;10.80;7.40;;;;;;;23.16;68.56;97542.17;105332;1284;24270;-83
2022/07/01 04:28:54;;;;;;;10.80;6.80;;;;;;;23.34;68.24;97535.76;105377;1284;22627;-84
2022/07/01 04:31:22;;;;;;;11.10;7.50;;;;;;;23.49;68.18;97532.30;105781;1284;25422;-83
2022/07/01 04:33:50;;;;;;;10.20;7.00;;;;;;;23.65;67.86;97533.56;105412;1284;22596;-82
2022/07/01 04:36:18;;;;;;;10.20;7.40;;;;;;;23.78;67.71;97528.70;105332;1284;24325;-82
2022/07/01 04:38:46;;;;;;;11.30;7.20;;;;;;;23.94;67.11;97535.11;105436;1284;24404;-83
2022/07/01 04:44:01;;;;;;;9.20;8.10;;;;;;;24.27;66.03;97539.59;105373;1284;24300;-82
2022/07/01 04:46:29;;;;;;;13.00;9.10;;;;;;;24.27;65.83;97540.23;105234;1286;24296;-82
2022/07/01 04:48:57;;;;;;;8.80;7.60;;;;;;;24.28;65.85;97541.25;105375;1284;25408;-83
2022/07/01 04:51:25;;;;;;;9.10;7.50;;;;;;;24.33;65.74;97539.42;105422;1284;23965;-83
2022/07/01 04:53:54;;;;;;;12.10;7.70;;;;;;;24.42;65.52;97542.23;105377;1284;22637;-83
2022/07/01 04:56:22;;;;;;;12.40;6.80;;;;;;;24.46;65.15;97541.92;105373;1284;22718;-82
2022/07/01 04:58:50;;;;;;;10.20;8.00;;;;;;;24.54;64.80;97541.82;105392;1284;24221;-82
2022/07/01 05:01:18;;;;;;;14.10;7.70;;;;;;;24.59;64.41;97539.59;105375;1284;25371;-83
2022/07/01 05:03:46;;;;;;;10.20;6.60;;;;;;;24.65;64.07;97537.12;105331;1284;22617;-82
2022/07/01 05:06:14;;;;;;;10.80;7.10;;;;;;;24.74;63.50;97534.63;105307;1284;22584;-83
2022/07/01 05:08:42;;;;;;;11.60;7.90;;;;;;;24.80;62.97;97538.06;105362;1284;25203;-82
2022/07/01 05:11:10;;;;;;;11.50;7.40;;;;;;;24.84;63.11;97535.45;105398;1284;25207;-83
2022/07/01 05:13:38;;;;;;;10.10;7.30;;;;;;;24.89;62.80;97541.88;105388;1284;22581;-83
2022/07/01 05:16:08;;;;;;;11.70;7.40;;;;;;;24.97;62.52;97543.64;105404;1284;22834;-83
2022/07/01 05:24:10;;;;;;;8.60;6.80;;;;;;;25.19;62.03;97540.22;105418;1284;22554;-84
2022/07/01 05:26:38;;;;;;;10.60;7.40;;;;;;;25.22;61.46;97537.84;105393;1284;25368;-84
2022/07/01 05:29:07;;;;;;;11.60;7.10;;;;;;;25.28;61.37;97540.71;105406;1284;23285;-84
2022/07/01 05:31:34;;;;;;;9.00;8.00;;;;;;;25.32;60.84;97542.27;105463;1284;25373;-87
2022/07/01 05:34:03;;;;;;;12.60;8.80;;;;;;;25.37;61.11;97546.00;105466;1284;25534;-85
2022/07/01 05:36:32;;;;;;;13.70;9.40;;;;;;;25.41;60.94;97551.64;105406;1284;22553;-84
2022/07/01 05:39:01;;;;;;;13.40;8.50;;;;;;;25.41;60.58;97555.10;105398;1284;22576;-85
2022/07/01 05:41:29;;;;;;;12.00;8.60;;;;;;;25.41;61.01;97550.62;105353;1284;22627;-85
2022/07/01 05:43:56;;;;;;;11.90;8.90;;;;;;;25.42;60.65;97550.23;105349;1284;22669;-85
2022/07/01 05:46:24;;;;;;;10.00;8.30;;;;;;;25.42;60.52;97549.75;105363;1284;24415;-84
2022/07/01 05:48:52;;;;;;;13.70;8.70;;;;;;;25.44;60.31;97549.96;105360;1284;24218;-85
2022/07/01 05:51:20;;;;;;;11.60;8.90;;;;;;;25.46;60.47;97555.56;105450;1284;24425;-83
2022/07/01 05:53:48;;;;;;;12.80;8.80;;;;;;;25.48;60.36;97558.38;105396;1284;24462;-83
2022/07/01 05:56:16;;;;;;;11.40;8.60;;;;;;;25.53;60.40;97565.58;105346;1284;23267;-84
2022/07/01 05:58:44;;;;;;;12.20;8.60;;;;;;;25.61;60.15;97569.23;105324;1284;22639;-84
2022/07/01 06:01:12;;;;;;;12.10;9.20;;;;;;;25.72;60.11;97573.70;105282;1287;25340;-83
2022/07/01 06:03:40;;;;;;;13.20;9.20;;;;;;;25.80;60.08;97571.42;105407;1284;22620;-84
2022/07/01 06:06:08;;;;;;;13.40;8.80;;;;;;;25.85;59.73;97572.13;105356;1284;23075;-83
2022/07/01 06:08:36;;;;;;;9.30;8.40;;;;;;;25.86;59.70;97572.52;105384;1283;25397;-83
2022/07/01 06:11:04;;;;;;;14.90;9.30;;;;;;;25.89;59.93;97575.16;105287;1287;22555;-84
2022/07/01 06:13:32;;;;;;;15.60;10.00;;;;;;;25.96;59.69;97574.39;105259;1284;22792;-83
2022/07/01 06:16:00;;;;;;;14.10;9.30;;;;;;;26.00;59.03;97570.23;105391;1284;22587;-85
2022/07/01 06:18:28;;;;;;;12.00;8.80;;;;;;;26.00;59.01;97567.24;105395;1284;22595;-84
2022/07/01 06:20:56;;;;;;;12.20;9.60;;;;;;;26.06;59.03;97565.30;105278;1284;22544;-85
2022/07/01 06:23:24;;;;;;;10.40;9.20;;;;;;;26.11;58.72;97564.14;105348;1284;22892;-84
2022/07/01 06:25:52;;;;;;;10.80;8.30;;;;;;;26.17;59.10;97570.71;105292;1284;25477;-83
2022/07/01 06:28:20;;;;;;;14.00;9.50;;;;;;;26.25;58.69;97570.46;105303;1284;23027;-85
2022/07/01 06:30:48;;;;;;;10.60;8.90;;;;;;;26.33;58.49;97568.18;105406;1284;22629;-84
2022/07/01 06:33:16;;;;;;;11.30;9.20;;;;;;;26.36;58.22;97567.29;105387;1284;22541;-85
2022/07/01 06:35:44;;;;;;;9.60;8.30;;;;;;;26.47;57.95;97567.95;105435;1284;25345;-83
2022/07/01 06:38:12;;;;;;;11.70;8.90;;;;;;;26.57;58.15;97568.81;105424;1284;22687;-85
2022/07/01 06:40:40;;;;;;;12.90;9.10;;;;;;;26.69;58.02;97569.98;105373;1284;25120;-82
2022/07/01 06:43:08;;;;;;;12.70;9.40;;;;;;;26.82;57.97;97569.45;105445;1284;25360;-83
2022/07/01 06:45:36;;;;;;;14.10;8.70;;;;;;;26.92;57.72;97566.37;105268;1284;24293;-82
2022/07/01 06:48:04;;;;;;;11.70;9.50;;;;;;;26.98;57.32;97566.54;105506;1284;24095;-83
2022/07/01 06:50:32;;;;;;;11.00;8.70;;;;;;;26.98;57.11;97566.54;105405;1284;22562;-84
2022/07/01 06:53:00;;;;;;;14.30;9.10;;;;;;;27.06;56.99;97568.02;105424;1284;24225;-84
2022/07/01 06:55:28;;;;;;;13.00;8.40;;;;;;;27.19;56.96;97569.66;105449;1284;24410;-83
2022/07/01 06:57:55;;;;;;;10.30;8.00;;;;;;;27.30;56.71;97567.52;105451;1284;25323;-83
2022/07/01 07:00:23;;;;;;;14.00;9.30;;;;;;;27.42;56.55;97568.06;105454;1284;25446;-83
2022/07/01 07:02:51;;;;;;;11.80;8.30;;;;;;;27.54;56.46;97564.38;105421;1283;22722;-84
2022/07/01 07:05:19;;;;;;;12.60;8.50;;;;;;;27.66;56.33;97562.29;105255;1284;22548;-82
2022/07/01 07:07:47;;;;;;;10.30;8.70;;;;;;;27.77;56.02;97564.11;105507;1284;22679;-83
2022/07/01 07:10:15;;;;;;;12.90;8.60;;;;;;;27.89;56.07;97560.67;105947;1284;24258;-84
2022/07/01 07:12:43;;;;;;;16.10;8.50;;;;;;;27.99;56.15;97568.24;105478;1284;23323;-83
2022/07/01 07:15:11;;;;;;;13.00;8.50;;;;;;;28.09;55.59;97564.20;105636;1284;22556;-84
2022/07/01 07:17:39;;;;;;;10.10;8.50;;;;;;;28.18;55.66;97566.02;105715;1284;22579;-83
2022/07/01 07:20:07;;;;;;;10.70;9.50;;;;;;;28.31;55.51;97568.05;105678;1284;22532;-82
2022/07/01 07:22:35;;;;;;;13.90;10.40;;;;;;;28.39;55.18;97566.09;105680;1283;24416;-86
2022/07/01 07:25:04;;;;;;;11.80;8.40;;;;;;;28.41;53.99;97567.95;105683;1284;22679;-86
2022/07/01 07:27:32;;;;;;;11.20;8.60;;;;;;;28.43;54.38;97568.64;105689;1284;23978;-84
2022/07/01 07:30:03;;;;;;;17.20;8.40;;;;;;;28.55;54.24;97561.45;105703;1284;22624;-83
2022/07/01 07:32:31;;;;;;;10.90;8.60;;;;;;;28.65;54.15;97560.45;105284;1284;24441;-84
2022/07/01 07:34:59;;;;;;;13.70;9.10;;;;;;;28.74;53.32;97561.38;105396;1284;24256;-83
2022/07/01 07:37:27;;;;;;;10.10;8.60;;;;;;;28.76;53.12;97561.23;105621;1284;24302;-84
2022/07/01 07:39:55;;;;;;;10.80;7.60;;;;;;;28.85;53.60;97565.58;105696;1284;25374;-85
2022/07/01 07:42:22;;;;;;;12.40;8.60;;;;;;;29.03;53.76;97567.20;105710;1284;24346;-85
2022/07/01 07:44:50;;;;;;;9.60;8.20;;;;;;;29.21;53.45;97571.31;105521;1284;22750;-85
2022/07/01 07:47:19;;;;;;;11.20;8.50;;;;;;;29.33;53.01;97571.66;105784;1284;22550;-84
2022/07/01 07:49:47;;;;;;;16.00;8.70;;;;;;;29.47;52.77;97579.05;105972;1284;22530;-85
2022/07/01 07:52:15;;;;;;;11.60;8.50;;;;;;;29.56;52.20;97574.86;105408;1284;24296;-86
2022/07/01 07:54:43;;;;;;;14.30;8.90;;;;;;;29.66;52.22;97575.36;106055;1284;25243;-83
2022/07/01 07:57:11;;;;;;;12.60;7.90;;;;;;;29.76;52.07;97575.91;105779;1284;25343;-84
2022/07/01 07:59:39;;;;;;;14.80;7.70;;;;;;;29.82;51.57;97577.49;105731;1284;22563;-83
2022/07/01 08:02:07;;;;;;;10.10;7.90;;;;;;;29.91;51.63;97577.74;105600;1284;22560;-83
2022/07/01 08:04:35;;;;;;;9.90;7.60;;;;;;;30.03;51.27;97574.73;105810;1284;25326;-83
2022/07/01 08:07:04;;;;;;;8.30;7.30;;;;;;;30.16;50.83;97578.61;105740;1284;22707;-83
2022/07/01 08:09:34;;;;;;;9.40;7.20;;;;;;;30.27;50.51;97573.19;105762;1284;25475;-82
2022/07/01 08:12:02;;;;;;;11.40;7.10;;;;;;;30.33;50.28;97571.52;105724;1284;24394;-83
2022/07/01 08:14:30;;;;;;;11.60;7.00;;;;;;;30.43;49.97;97570.61;105817;1284;22660;-83
2022/07/01 08:16:58;;;;;;;12.20;7.00;;;;;;;30.58;49.61;97570.03;105803;1283;22548;-84
2022/07/01 08:19:26;;;;;;;10.50;6.50;;;;;;;30.72;48.60;97572.96;105752;1284;22578;-84
2022/07/01 08:21:54;;;;;;;12.90;6.60;;;;;;;30.83;48.17;97568.40;105751;1284;22810;-84
2022/07/01 08:24:22;;;;;;;10.80;6.50;;;;;;;30.92;47.77;97568.85;105745;1283;23318;-84
2022/07/01 08:26:50;;;;;;;14.40;6.80;;;;;;;31.07;47.54;97568.23;105545;1285;22581;-84
2022/07/01 08:29:18;;;;;;;11.00;6.20;;;;;;;31.24;47.03;97567.09;105741;1284;22548;-84
2022/07/01 08:31:46;;;;;;;10.10;6.00;;;;;;;31.37;46.51;97567.48;105760;1284;22648;-83
2022/07/01 08:34:20;;;;;;;10.70;5.90;;;;;;;31.45;44.45;97566.29;105740;1283;22571;-85
2022/07/01 08:36:48;;;;;;;11.70;5.80;;;;;;;31.51;43.96;97568.23;105804;1283;23472;-85
2022/07/01 08:39:16;;;;;;;12.20;6.10;;;;;;;31.55;43.81;97575.43;105869;1283;25349;-84
2022/07/01 08:41:44;;;;;;;8.40;5.70;;;;;;;31.63;43.40;97578.83;105743;1283;22577;-84
2022/07/01 08:44:12;;;;;;;6.90;5.40;;;;;;;31.72;41.40;97585.23;105881;1283;25249;-84
2022/07/01 08:46:40;;;;;;;13.50;5.50;;;;;;;31.72;39.58;97585.48;105888;1282;22806;-84
2022/07/01 08:49:08;;;;;;;7.50;5.10;;;;;;;31.68;38.83;97584.86;105738;1283;22656;-84
2022/07/01 08:51:36;;;;;;;11.80;5.80;;;;;;;31.67;39.36;97586.58;105821;1283;22564;-84
2022/07/01 08:54:04;;;;;;;15.20;6.10;;;;;;;31.73;39.60;97588.77;105657;1284;22725;-83
2022/07/01 08:56:41;;;;;;;9.70;5.10;;;;;;;31.75;39.27;97593.55;105783;1283;23456;-84
2022/07/01 08:59:22;;;;;;;10.70;6.20;;;;;;;31.81;38.59;97594.09;105569;1284;22588;-82
2022/07/01 09:02:01;;;;;;;13.00;6.50;;;;;;;31.84;39.08;97596.52;105836;1283;22701;-83
2022/07/01 09:04:29;;;;;;;13.10;6.50;;;;;;;31.90;38.78;97599.52;105863;1283;22554;-83
2022/07/01 09:07:07;;;;;;;11.00;7.00;;;;;;;31.94;39.24;97601.30;105788;1283;22580;-85
2022/07/01 09:09:39;;;;;;;19.80;7.10;;;;;;;32.00;38.93;97602.14;105862;1283;22560;-83
2022/07/01 09:12:08;;;;;;;19.20;7.50;;;;;;;32.00;38.76;97597.61;105726;1283;22514;-83
2022/07/01 09:14:36;;;;;;;10.50;7.60;;;;;;;31.98;38.98;97599.52;105747;1282;22677;-83
2022/07/01 09:17:06;;;;;;;13.70;6.90;;;;;;;32.01;39.18;97601.88;105624;1283;22579;-85
2022/07/01 09:19:37;;;;;;;10.40;6.70;;;;;;;32.04;39.37;97596.59;105598;1283;23231;-85
2022/07/01 09:22:13;;;;;;;12.00;6.30;;;;;;;32.09;38.66;97608.14;105652;1283;23381;-84
2022/07/01 09:24:43;;;;;;;13.10;6.80;;;;;;;32.11;38.04;97606.25;105866;1283;24427;-84
2022/07/01 09:27:13;;;;;;;12.10;5.30;;;;;;;32.18;38.16;97605.38;105884;1282;25248;-86
2022/07/01 09:29:45;;;;;;;16.60;5.90;;;;;;;32.32;37.99;97606.23;105766;1284;25235;-88
2022/07/01 09:32:17;;;;;;;10.10;5.20;;;;;;;32.38;36.77;97612.08;106017;1283;22671;-87
2022/07/01 09:34:48;;;;;;;12.30;6.20;;;;;;;32.42;36.61;97611.55;105946;1283;22555;-88
2022/07/01 09:37:21;;;;;;;12.70;6.70;;;;;;;32.47;35.49;97611.80;105674;1284;23560;-87
2022/07/01 09:39:50;;;;;;;;;;;;;;;32.41;35.31;97607.52;106127;1284;22540;-86
2022/07/01 09:42:20;;;;;;;9.40;5.00;;;;;;;32.41;35.49;97608.16;105856;1285;22724;-86
2022/07/01 09:45:10;;;;;;;14.40;4.80;;;;;;;32.50;35.97;97604.66;105997;1284;23357;-87
2022/07/01 09:47:43;;;;;;;9.40;5.70;;;;;;;32.73;36.00;97604.62;105624;1284;22553;-86
2022/07/01 09:50:11;;;;;;;10.90;6.00;;;;;;;32.92;35.89;97598.98;105648;1284;22535;-86
2022/07/01 09:52:39;;;;;;;10.70;5.60;;;;;;;33.08;36.10;97597.14;105719;1284;24216;-87
2022/07/01 09:55:08;;;;;;;15.40;5.80;;;;;;;33.21;35.94;97601.03;105664;1284;24223;-86
2022/07/01 09:57:36;;;;;;;14.00;6.60;;;;;;;33.33;36.11;97597.70;105619;1284;24322;-86
2022/07/01 10:00:06;;;;;;;13.80;6.10;;;;;;;33.44;35.68;97595.98;105695;1284;24727;-88
2022/07/01 10:02:36;;;;;;;13.10;5.80;;;;;;;33.45;35.90;97596.33;105783;1284;23763;-87
2022/07/01 10:05:17;;;;;;;11.50;5.90;;;;;;;33.55;36.03;97590.86;105649;1284;23934;-85
2022/07/01 10:07:58;;;;;;;14.00;5.90;;;;;;;33.60;35.99;97590.96;105660;1284;22536;-89
2022/07/01 10:10:51;;;;;;;10.10;5.70;;;;;;;33.81;36.10;97587.80;105924;1284;22584;-88
2022/07/01 10:13:26;;;;;;;12.20;5.90;;;;;;;34.06;36.72;97587.20;106123;1284;24296;-87
2022/07/01 10:16:22;;;;;;;11.10;5.50;;;;;;;34.27;36.23;97587.46;105737;1284;24271;-89
2022/07/01 10:18:50;;;;;;;13.60;5.60;;;;;;;34.45;35.66;97587.27;105776;1284;22565;-86
2022/07/01 10:21:29;;;;;;;12.30;5.80;;;;;;;34.35;34.95;97587.86;105742;1284;23990;-88
2022/07/01 10:24:17;;;;;;;10.80;5.40;;;;;;;34.36;34.72;97587.96;105960;1284;22588;-86
2022/07/01 10:26:46;;;;;;;12.90;6.70;;;;;;;34.32;34.42;97580.94;105800;1284;25428;-85
2022/07/01 10:29:29;;;;;;;19.50;7.90;;;;;;;34.27;34.04;97577.98;106890;1284;22579;-87
2022/07/01 10:32:26;;;;;;;14.30;7.60;;;;;;;34.25;34.08;97573.81;106930;1284;22583;-85
2022/07/01 10:35:15;;;;;;;14.10;5.90;;;;;;;34.16;33.97;97576.86;106030;1284;22736;-90
2022/07/01 10:38:00;;;;;;;10.70;5.40;;;;;;;34.05;34.14;97575.44;106116;1285;22566;-88
2022/07/01 10:40:48;;;;;;;12.00;5.20;;;;;;;34.07;34.44;97570.12;105597;1285;22498;-88
2022/07/01 10:43:32;;;;;;;10.00;5.30;;;;;;;34.27;34.92;97564.52;105480;1285;22762;-85
2022/07/01 10:46:02;;;;;;;13.20;5.30;;;;;;;34.52;35.39;97564.84;105736;1284;22556;-86
2022/07/01 10:48:33;;;;;;;11.60;5.30;;;;;;;34.75;35.13;97565.00;105645;1284;25353;-85
2022/07/01 10:51:01;;;;;;;15.30;5.10;;;;;;;35.01;34.52;97570.29;105684;1284;23020;-85
2022/07/01 10:53:47;;;;;;;8.40;4.70;;;;;;;35.16;34.23;97565.68;105639;1284;24323;-85
2022/07/01 10:56:38;;;;;;;13.40;5.80;;;;;;;35.33;34.07;97561.35;105710;1284;22559;-87
2022/07/01 10:59:18;;;;;;;13.50;5.00;;;;;;;35.51;33.93;97560.95;105487;1285;23584;-84
2022/07/01 11:01:47;;;;;;;11.00;4.90;;;;;;;35.65;33.90;97563.27;105693;1284;22763;-86
2022/07/01 11:04:17;;;;;;;12.80;5.00;;;;;;;35.78;33.43;97561.54;105586;1284;22555;-84
2022/07/01 11:06:49;;;;;;;13.80;5.00;;;;;;;35.87;33.27;97560.64;105763;1284;24252;-85
2022/07/01 11:09:17;;;;;;;10.60;4.70;;;;;;;35.95;33.18;97560.19;105640;1284;23551;-86
2022/07/01 11:11:45;;;;;;;12.60;5.10;;;;;;;36.03;32.69;97553.52;105561;1284;24422;-85
2022/07/01 11:14:13;;;;;;;14.40;5.10;;;;;;;36.02;32.50;97554.30;105658;1284;24320;-85
2022/07/01 11:16:49;;;;;;;12.10;5.10;;;;;;;35.93;31.92;97553.31;105767;1284;23311;-85
2022/07/01 11:19:18;;;;;;;10.80;4.30;;;;;;;35.79;31.91;97548.64;105722;1284;22721;-84
2022/07/01 11:21:53;;;;;;;10.90;5.10;;;;;;;35.73;31.14;97543.66;105733;1284;23490;-85
2022/07/01 11:24:22;;;;;;;10.60;4.80;;;;;;;35.71;31.75;97546.70;105536;1284;24701;-84
2022/07/01 11:26:50;;;;;;;9.90;4.50;;;;;;;35.79;32.13;97544.48;105612;1285;23318;-85
2022/07/01 11:29:28;;;;;;;17.60;5.00;;;;;;;35.83;31.45;97541.73;105711;1284;22505;-84
2022/07/01 11:31:56;;;;;;;11.80;4.70;;;;;;;35.82;31.79;97539.43;105767;1284;22569;-86
2022/07/01 11:34:30;;;;;;;16.50;5.10;;;;;;;35.94;31.83;97535.39;106981;1284;22576;-87
2022/07/01 11:39:48;;;;;;;13.10;4.90;;;;;;;36.17;31.61;97533.12;105787;1284;22581;-85
2022/07/01 11:42:16;;;;;;;13.70;4.80;;;;;;;36.32;31.54;97530.90;105545;1285;22560;-84
2022/07/01 11:44:44;;;;;;;10.30;4.90;;;;;;;36.51;31.91;97530.36;105586;1284;22582;-85
2022/07/01 11:47:23;;;;;;;15.50;4.70;;;;;;;36.78;31.66;97528.95;105749;1284;22747;-86
2022/07/01 11:49:52;;;;;;;16.90;4.90;;;;;;;36.97;29.94;97525.88;105415;1284;22767;-86